Terminal Aerodrome Forecast
Issued by NWS

Home | Current Version | Previous Version | Graphics & Text | Print | Product List | Glossary Off
Versions: 1 2 3 4 5 6 7 8 9 10 11 12 13 14 15 16

038
FTUS43 KMPX 291720
TAFRNH
TAF
KRNH 291720Z 2918/3018 28015G22KT P6SM VCSH BKN040
     FM300100 30013KT P6SM BKN050
     FM300800 27008KT P6SM BKN090
     FM301300 28010KT P6SM OVC025=

USA.gov is the U.S. government's official web portal to all federal, state and local government web resources and services.